sensor_id;sensor_type;location;lat;lon;timestamp;P1;durP1;ratioP1;P2;durP2;ratioP2
27257;SDS011;62045;49.986;8.672;2023-03-14T00:04:01;43.72;;;39.22;;
27257;SDS011;62045;49.986;8.672;2023-03-14T00:14:04;39.80;;;35.75;;
27257;SDS011;62045;49.986;8.672;2023-03-14T00:19:06;39.85;;;35.75;;
27257;SDS011;62045;49.986;8.672;2023-03-14T00:24:07;37.47;;;33.47;;
27257;SDS011;62045;49.986;8.672;2023-03-14T00:29:08;36.95;;;33.15;;
27257;SDS011;62045;49.986;8.672;2023-03-14T00:34:10;35.80;;;32.10;;
27257;SDS011;62045;49.986;8.672;2023-03-14T00:39:11;36.08;;;32.17;;
27257;SDS011;62045;49.986;8.672;2023-03-14T00:44:12;32.55;;;29.25;;
27257;SDS011;62045;49.986;8.672;2023-03-14T00:49:14;34.42;;;30.80;;
27257;SDS011;62045;49.986;8.672;2023-03-14T00:54:14;32.20;;;28.83;;
27257;SDS011;62045;49.986;8.672;2023-03-14T00:59:15;33.55;;;29.98;;
27257;SDS011;62045;49.986;8.672;2023-03-14T01:04:17;33.25;;;29.80;;
27257;SDS011;62045;49.986;8.672;2023-03-14T01:09:18;32.47;;;29.13;;
27257;SDS011;62045;49.986;8.672;2023-03-14T01:14:19;33.13;;;29.65;;
27257;SDS011;62045;49.986;8.672;2023-03-14T01:19:21;31.70;;;28.20;;
27257;SDS011;62045;49.986;8.672;2023-03-14T01:24:22;31.60;;;28.30;;
27257;SDS011;62045;49.986;8.672;2023-03-14T01:29:22;30.23;;;27.02;;
27257;SDS011;62045;49.986;8.672;2023-03-14T01:34:25;30.00;;;26.67;;
27257;SDS011;62045;49.986;8.672;2023-03-14T01:39:26;28.98;;;25.88;;
27257;SDS011;62045;49.986;8.672;2023-03-14T01:44:27;30.70;;;25.63;;
27257;SDS011;62045;49.986;8.672;2023-03-14T01:49:30;28.63;;;25.50;;
27257;SDS011;62045;49.986;8.672;2023-03-14T01:54:44;29.45;;;24.98;;
27257;SDS011;62045;49.986;8.672;2023-03-14T01:59:48;27.83;;;24.70;;
27257;SDS011;62045;49.986;8.672;2023-03-14T02:04:55;27.65;;;23.95;;
27257;SDS011;62045;49.986;8.672;2023-03-14T02:10:02;27.33;;;23.10;;
27257;SDS011;62045;49.986;8.672;2023-03-14T02:15:07;27.65;;;23.00;;
27257;SDS011;62045;49.986;8.672;2023-03-14T02:20:37;27.02;;;24.13;;
27257;SDS011;62045;49.986;8.672;2023-03-14T02:25:42;23.25;;;20.58;;
27257;SDS011;62045;49.986;8.672;2023-03-14T02:30:49;24.17;;;21.45;;
27257;SDS011;62045;49.986;8.672;2023-03-14T02:35:51;23.73;;;20.58;;
27257;SDS011;62045;49.986;8.672;2023-03-14T02:40:56;26.73;;;21.83;;
27257;SDS011;62045;49.986;8.672;2023-03-14T02:45:58;23.30;;;20.58;;
27257;SDS011;62045;49.986;8.672;2023-03-14T02:51:01;25.23;;;19.60;;
27257;SDS011;62045;49.986;8.672;2023-03-14T02:56:03;20.85;;;18.52;;
27257;SDS011;62045;49.986;8.672;2023-03-14T03:06:09;22.92;;;18.48;;
27257;SDS011;62045;49.986;8.672;2023-03-14T03:11:10;21.58;;;18.48;;
27257;SDS011;62045;49.986;8.672;2023-03-14T03:16:12;20.35;;;18.10;;
27257;SDS011;62045;49.986;8.672;2023-03-14T03:21:13;22.95;;;17.63;;
27257;SDS011;62045;49.986;8.672;2023-03-14T03:26:17;18.75;;;16.83;;
27257;SDS011;62045;49.986;8.672;2023-03-14T03:31:19;19.40;;;15.73;;
27257;SDS011;62045;49.986;8.672;2023-03-14T03:36:21;23.60;;;17.25;;
27257;SDS011;62045;49.986;8.672;2023-03-14T03:41:23;19.17;;;15.73;;
27257;SDS011;62045;49.986;8.672;2023-03-14T03:46:26;19.33;;;15.57;;
27257;SDS011;62045;49.986;8.672;2023-03-14T03:51:27;18.00;;;15.70;;
27257;SDS011;62045;49.986;8.672;2023-03-14T03:56:28;17.75;;;15.05;;
27257;SDS011;62045;49.986;8.672;2023-03-14T04:01:30;16.63;;;14.82;;
27257;SDS011;62045;49.986;8.672;2023-03-14T04:06:33;15.90;;;13.85;;
27257;SDS011;62045;49.986;8.672;2023-03-14T04:11:35;15.02;;;12.95;;
27257;SDS011;62045;49.986;8.672;2023-03-14T04:17:03;15.18;;;13.07;;
27257;SDS011;62045;49.986;8.672;2023-03-14T04:22:04;15.87;;;14.27;;
27257;SDS011;62045;49.986;8.672;2023-03-14T04:27:09;15.23;;;12.57;;
27257;SDS011;62045;49.986;8.672;2023-03-14T04:32:12;15.95;;;12.85;;
27257;SDS011;62045;49.986;8.672;2023-03-14T04:37:13;13.18;;;11.73;;
27257;SDS011;62045;49.986;8.672;2023-03-14T04:42:17;14.85;;;12.23;;
27257;SDS011;62045;49.986;8.672;2023-03-14T04:47:19;15.75;;;12.27;;
27257;SDS011;62045;49.986;8.672;2023-03-14T04:52:22;14.25;;;12.38;;
27257;SDS011;62045;49.986;8.672;2023-03-14T04:57:23;12.55;;;10.65;;
27257;SDS011;62045;49.986;8.672;2023-03-14T05:02:26;15.20;;;11.90;;
27257;SDS011;62045;49.986;8.672;2023-03-14T05:07:47;13.07;;;11.25;;
27257;SDS011;62045;49.986;8.672;2023-03-14T05:13:08;13.75;;;10.95;;
27257;SDS011;62045;49.986;8.672;2023-03-14T05:18:30;13.88;;;10.88;;
27257;SDS011;62045;49.986;8.672;2023-03-14T05:23:54;12.85;;;11.20;;
27257;SDS011;62045;49.986;8.672;2023-03-14T05:29:27;10.45;;;9.35;;
27257;SDS011;62045;49.986;8.672;2023-03-14T05:34:58;12.68;;;10.43;;
27257;SDS011;62045;49.986;8.672;2023-03-14T05:40:17;12.20;;;9.50;;
27257;SDS011;62045;49.986;8.672;2023-03-14T05:45:36;10.93;;;9.68;;
27257;SDS011;62045;49.986;8.672;2023-03-14T05:50:41;11.65;;;8.82;;
27257;SDS011;62045;49.986;8.672;2023-03-14T05:55:56;11.15;;;8.60;;
27257;SDS011;62045;49.986;8.672;2023-03-14T06:01:10;10.75;;;8.55;;
27257;SDS011;62045;49.986;8.672;2023-03-14T06:06:34;10.00;;;8.70;;
27257;SDS011;62045;49.986;8.672;2023-03-14T06:11:35;11.73;;;8.85;;
27257;SDS011;62045;49.986;8.672;2023-03-14T06:16:38;9.98;;;7.75;;
27257;SDS011;62045;49.986;8.672;2023-03-14T06:21:40;9.15;;;8.15;;
27257;SDS011;62045;49.986;8.672;2023-03-14T06:26:41;10.57;;;8.05;;
27257;SDS011;62045;49.986;8.672;2023-03-14T06:31:43;8.63;;;7.13;;
27257;SDS011;62045;49.986;8.672;2023-03-14T06:36:45;10.52;;;7.70;;
27257;SDS011;62045;49.986;8.672;2023-03-14T06:41:47;9.20;;;7.70;;
27257;SDS011;62045;49.986;8.672;2023-03-14T06:46:47;8.45;;;6.82;;
27257;SDS011;62045;49.986;8.672;2023-03-14T06:51:49;9.25;;;7.03;;
27257;SDS011;62045;49.986;8.672;2023-03-14T06:56:50;8.55;;;6.57;;
27257;SDS011;62045;49.986;8.672;2023-03-14T07:01:51;9.02;;;6.22;;
27257;SDS011;62045;49.986;8.672;2023-03-14T07:06:53;8.57;;;6.43;;
27257;SDS011;62045;49.986;8.672;2023-03-14T07:11:54;7.80;;;6.28;;
27257;SDS011;62045;49.986;8.672;2023-03-14T07:16:56;8.50;;;6.68;;
27257;SDS011;62045;49.986;8.672;2023-03-14T07:21:58;8.80;;;6.00;;
27257;SDS011;62045;49.986;8.672;2023-03-14T07:27:01;9.48;;;6.00;;
27257;SDS011;62045;49.986;8.672;2023-03-14T07:32:03;9.23;;;6.00;;
27257;SDS011;62045;49.986;8.672;2023-03-14T07:37:05;7.68;;;5.65;;
27257;SDS011;62045;49.986;8.672;2023-03-14T07:42:07;7.32;;;5.80;;
27257;SDS011;62045;49.986;8.672;2023-03-14T07:47:13;8.27;;;5.78;;
27257;SDS011;62045;49.986;8.672;2023-03-14T07:52:15;8.20;;;5.95;;
27257;SDS011;62045;49.986;8.672;2023-03-14T07:57:16;7.35;;;5.25;;
27257;SDS011;62045;49.986;8.672;2023-03-14T08:02:17;6.85;;;5.07;;
27257;SDS011;62045;49.986;8.672;2023-03-14T08:07:19;8.40;;;5.68;;
27257;SDS011;62045;49.986;8.672;2023-03-14T08:12:19;6.22;;;4.72;;
27257;SDS011;62045;49.986;8.672;2023-03-14T08:17:20;6.85;;;5.10;;
27257;SDS011;62045;49.986;8.672;2023-03-14T08:22:22;6.30;;;4.40;;
27257;SDS011;62045;49.986;8.672;2023-03-14T08:27:23;6.30;;;4.47;;
27257;SDS011;62045;49.986;8.672;2023-03-14T08:32:23;6.25;;;4.63;;
27257;SDS011;62045;49.986;8.672;2023-03-14T08:37:26;6.00;;;4.88;;
27257;SDS011;62045;49.986;8.672;2023-03-14T08:42:27;5.57;;;4.38;;
27257;SDS011;62045;49.986;8.672;2023-03-14T08:47:27;6.53;;;4.07;;
27257;SDS011;62045;49.986;8.672;2023-03-14T08:52:29;5.45;;;4.25;;
27257;SDS011;62045;49.986;8.672;2023-03-14T08:57:30;6.90;;;4.20;;
27257;SDS011;62045;49.986;8.672;2023-03-14T09:02:31;10.07;;;3.83;;
27257;SDS011;62045;49.986;8.672;2023-03-14T09:07:33;6.47;;;3.53;;
27257;SDS011;62045;49.986;8.672;2023-03-14T09:12:33;5.55;;;3.05;;
27257;SDS011;62045;49.986;8.672;2023-03-14T09:17:34;4.20;;;2.40;;
27257;SDS011;62045;49.986;8.672;2023-03-14T09:22:36;20.95;;;4.60;;
27257;SDS011;62045;49.986;8.672;2023-03-14T09:27:37;21.13;;;2.47;;
27257;SDS011;62045;49.986;8.672;2023-03-14T09:32:38;10.43;;;1.55;;
27257;SDS011;62045;49.986;8.672;2023-03-14T09:37:40;2.85;;;0.93;;
27257;SDS011;62045;49.986;8.672;2023-03-14T09:42:41;2.65;;;0.90;;
27257;SDS011;62045;49.986;8.672;2023-03-14T09:47:41;4.22;;;1.17;;
27257;SDS011;62045;49.986;8.672;2023-03-14T09:52:46;15.18;;;1.10;;
27257;SDS011;62045;49.986;8.672;2023-03-14T09:57:54;5.70;;;1.00;;
27257;SDS011;62045;49.986;8.672;2023-03-14T10:02:59;6.53;;;0.90;;
27257;SDS011;62045;49.986;8.672;2023-03-14T10:08:15;5.35;;;1.00;;
27257;SDS011;62045;49.986;8.672;2023-03-14T10:13:16;3.83;;;1.00;;
27257;SDS011;62045;49.986;8.672;2023-03-14T10:18:18;2.88;;;0.93;;
27257;SDS011;62045;49.986;8.672;2023-03-14T10:23:26;1.95;;;0.80;;
27257;SDS011;62045;49.986;8.672;2023-03-14T10:28:29;2.28;;;0.77;;
27257;SDS011;62045;49.986;8.672;2023-03-14T10:33:32;2.67;;;0.60;;
27257;SDS011;62045;49.986;8.672;2023-03-14T10:38:36;3.00;;;1.05;;
27257;SDS011;62045;49.986;8.672;2023-03-14T10:43:37;3.10;;;1.02;;
27257;SDS011;62045;49.986;8.672;2023-03-14T10:48:38;2.22;;;0.60;;
27257;SDS011;62045;49.986;8.672;2023-03-14T10:53:41;1.90;;;0.80;;
27257;SDS011;62045;49.986;8.672;2023-03-14T10:58:44;1.10;;;0.60;;
27257;SDS011;62045;49.986;8.672;2023-03-14T11:03:47;2.38;;;0.60;;
27257;SDS011;62045;49.986;8.672;2023-03-14T11:08:55;2.38;;;0.40;;
27257;SDS011;62045;49.986;8.672;2023-03-14T11:14:05;1.45;;;0.43;;
27257;SDS011;62045;49.986;8.672;2023-03-14T11:19:20;2.28;;;0.60;;
27257;SDS011;62045;49.986;8.672;2023-03-14T11:24:44;2.28;;;0.60;;
27257;SDS011;62045;49.986;8.672;2023-03-14T11:30:13;3.03;;;0.60;;
27257;SDS011;62045;49.986;8.672;2023-03-14T11:35:20;1.58;;;0.60;;
27257;SDS011;62045;49.986;8.672;2023-03-14T11:40:27;1.98;;;0.50;;
27257;SDS011;62045;49.986;8.672;2023-03-14T11:45:29;1.58;;;0.47;;
27257;SDS011;62045;49.986;8.672;2023-03-14T11:50:35;3.15;;;0.55;;
27257;SDS011;62045;49.986;8.672;2023-03-14T11:55:40;1.30;;;0.47;;
27257;SDS011;62045;49.986;8.672;2023-03-14T12:00:42;0.85;;;0.22;;
27257;SDS011;62045;49.986;8.672;2023-03-14T12:05:50;1.75;;;0.52;;
27257;SDS011;62045;49.986;8.672;2023-03-14T12:11:01;0.82;;;0.25;;
27257;SDS011;62045;49.986;8.672;2023-03-14T12:16:05;1.05;;;0.30;;
27257;SDS011;62045;49.986;8.672;2023-03-14T12:21:42;1.45;;;0.30;;
27257;SDS011;62045;49.986;8.672;2023-03-14T12:26:52;3.80;;;0.95;;
27257;SDS011;62045;49.986;8.672;2023-03-14T12:32:06;1.08;;;0.20;;
27257;SDS011;62045;49.986;8.672;2023-03-14T12:37:12;1.20;;;0.30;;
27257;SDS011;62045;49.986;8.672;2023-03-14T12:42:21;0.90;;;0.30;;
27257;SDS011;62045;49.986;8.672;2023-03-14T12:53:25;1.50;;;0.45;;
27257;SDS011;62045;49.986;8.672;2023-03-14T12:59:04;1.10;;;0.32;;
27257;SDS011;62045;49.986;8.672;2023-03-14T13:04:13;1.02;;;0.38;;
27257;SDS011;62045;49.986;8.672;2023-03-14T13:15:00;1.20;;;0.28;;
27257;SDS011;62045;49.986;8.672;2023-03-14T13:20:05;1.17;;;0.30;;
27257;SDS011;62045;49.986;8.672;2023-03-14T13:25:12;3.03;;;0.45;;
27257;SDS011;62045;49.986;8.672;2023-03-14T13:30:18;1.02;;;0.20;;
27257;SDS011;62045;49.986;8.672;2023-03-14T13:35:23;2.33;;;0.65;;
27257;SDS011;62045;49.986;8.672;2023-03-14T13:45:30;1.02;;;0.20;;
27257;SDS011;62045;49.986;8.672;2023-03-14T13:50:31;0.52;;;0.20;;
27257;SDS011;62045;49.986;8.672;2023-03-14T13:55:33;0.60;;;0.20;;
27257;SDS011;62045;49.986;8.672;2023-03-14T14:00:35;0.43;;;0.10;;
27257;SDS011;62045;49.986;8.672;2023-03-14T14:05:35;0.60;;;0.20;;
27257;SDS011;62045;49.986;8.672;2023-03-14T14:10:36;0.82;;;0.20;;
27257;SDS011;62045;49.986;8.672;2023-03-14T14:15:41;0.88;;;0.20;;
27257;SDS011;62045;49.986;8.672;2023-03-14T14:20:44;0.82;;;0.20;;
27257;SDS011;62045;49.986;8.672;2023-03-14T14:25:48;0.53;;;0.20;;
27257;SDS011;62045;49.986;8.672;2023-03-14T14:30:59;0.35;;;0.10;;
27257;SDS011;62045;49.986;8.672;2023-03-14T14:36:02;0.98;;;0.20;;
27257;SDS011;62045;49.986;8.672;2023-03-14T14:41:03;0.40;;;0.10;;
27257;SDS011;62045;49.986;8.672;2023-03-14T14:46:05;0.95;;;0.20;;
27257;SDS011;62045;49.986;8.672;2023-03-14T14:51:08;0.88;;;0.28;;
27257;SDS011;62045;49.986;8.672;2023-03-14T14:56:15;0.75;;;0.20;;
27257;SDS011;62045;49.986;8.672;2023-03-14T15:01:19;1.20;;;0.20;;
27257;SDS011;62045;49.986;8.672;2023-03-14T15:06:22;0.45;;;0.20;;
27257;SDS011;62045;49.986;8.672;2023-03-14T15:11:27;0.22;;;0.10;;
27257;SDS011;62045;49.986;8.672;2023-03-14T15:16:30;0.35;;;0.10;;
27257;SDS011;62045;49.986;8.672;2023-03-14T15:21:31;2.05;;;0.30;;
27257;SDS011;62045;49.986;8.672;2023-03-14T15:26:32;1.13;;;0.17;;
27257;SDS011;62045;49.986;8.672;2023-03-14T15:31:34;2.28;;;0.20;;
27257;SDS011;62045;49.986;8.672;2023-03-14T15:36:35;0.47;;;0.10;;
27257;SDS011;62045;49.986;8.672;2023-03-14T15:41:37;0.30;;;0.00;;
27257;SDS011;62045;49.986;8.672;2023-03-14T15:46:39;0.70;;;0.20;;
27257;SDS011;62045;49.986;8.672;2023-03-14T15:51:39;0.73;;;0.20;;
27257;SDS011;62045;49.986;8.672;2023-03-14T15:56:40;0.25;;;0.10;;
27257;SDS011;62045;49.986;8.672;2023-03-14T16:01:42;0.80;;;0.20;;
27257;SDS011;62045;49.986;8.672;2023-03-14T16:06:43;2.63;;;0.17;;
27257;SDS011;62045;49.986;8.672;2023-03-14T16:11:44;0.00;;;0.00;;
27257;SDS011;62045;49.986;8.672;2023-03-14T16:16:46;0.85;;;0.10;;
27257;SDS011;62045;49.986;8.672;2023-03-14T16:21:47;0.35;;;0.10;;
27257;SDS011;62045;49.986;8.672;2023-03-14T16:26:48;0.38;;;0.10;;
27257;SDS011;62045;49.986;8.672;2023-03-14T16:31:50;1.20;;;0.20;;
27257;SDS011;62045;49.986;8.672;2023-03-14T16:36:50;0.88;;;0.20;;
27257;SDS011;62045;49.986;8.672;2023-03-14T16:41:51;0.35;;;0.10;;
27257;SDS011;62045;49.986;8.672;2023-03-14T16:46:53;1.40;;;0.30;;
27257;SDS011;62045;49.986;8.672;2023-03-14T16:51:54;0.20;;;0.10;;
27257;SDS011;62045;49.986;8.672;2023-03-14T16:56:54;0.75;;;0.20;;
27257;SDS011;62045;49.986;8.672;2023-03-14T17:01:56;0.30;;;0.10;;
27257;SDS011;62045;49.986;8.672;2023-03-14T17:06:57;0.70;;;0.10;;
27257;SDS011;62045;49.986;8.672;2023-03-14T17:11:58;0.70;;;0.17;;
27257;SDS011;62045;49.986;8.672;2023-03-14T17:17:00;0.40;;;0.10;;
27257;SDS011;62045;49.986;8.672;2023-03-14T17:22:01;0.15;;;0.10;;
27257;SDS011;62045;49.986;8.672;2023-03-14T17:27:01;0.10;;;0.00;;
27257;SDS011;62045;49.986;8.672;2023-03-14T17:32:04;1.90;;;0.20;;
27257;SDS011;62045;49.986;8.672;2023-03-14T17:37:05;0.20;;;0.03;;
27257;SDS011;62045;49.986;8.672;2023-03-14T17:42:05;0.82;;;0.20;;
27257;SDS011;62045;49.986;8.672;2023-03-14T17:47:08;0.32;;;0.10;;
27257;SDS011;62045;49.986;8.672;2023-03-14T17:52:08;0.55;;;0.20;;
27257;SDS011;62045;49.986;8.672;2023-03-14T17:57:09;1.55;;;0.20;;
27257;SDS011;62045;49.986;8.672;2023-03-14T18:02:11;0.63;;;0.10;;
27257;SDS011;62045;49.986;8.672;2023-03-14T18:07:12;0.10;;;0.05;;
27257;SDS011;62045;49.986;8.672;2023-03-14T18:12:13;0.68;;;0.20;;
27257;SDS011;62045;49.986;8.672;2023-03-14T18:17:15;0.60;;;0.10;;
27257;SDS011;62045;49.986;8.672;2023-03-14T18:22:16;0.20;;;0.10;;
27257;SDS011;62045;49.986;8.672;2023-03-14T18:27:16;0.38;;;0.10;;
27257;SDS011;62045;49.986;8.672;2023-03-14T18:32:19;0.60;;;0.20;;
27257;SDS011;62045;49.986;8.672;2023-03-14T18:37:19;0.45;;;0.10;;
27257;SDS011;62045;49.986;8.672;2023-03-14T18:42:20;0.30;;;0.10;;
27257;SDS011;62045;49.986;8.672;2023-03-14T18:47:22;0.50;;;0.20;;
27257;SDS011;62045;49.986;8.672;2023-03-14T18:52:23;0.25;;;0.10;;
27257;SDS011;62045;49.986;8.672;2023-03-14T18:57:24;0.55;;;0.20;;
27257;SDS011;62045;49.986;8.672;2023-03-14T19:02:26;1.55;;;0.22;;
27257;SDS011;62045;49.986;8.672;2023-03-14T19:07:27;0.95;;;0.20;;
27257;SDS011;62045;49.986;8.672;2023-03-14T19:12:27;0.52;;;0.10;;
27257;SDS011;62045;49.986;8.672;2023-03-14T19:17:29;2.78;;;0.17;;
27257;SDS011;62045;49.986;8.672;2023-03-14T19:22:30;2.80;;;0.30;;
27257;SDS011;62045;49.986;8.672;2023-03-14T19:27:31;0.40;;;0.20;;
27257;SDS011;62045;49.986;8.672;2023-03-14T19:32:33;1.08;;;0.30;;
27257;SDS011;62045;49.986;8.672;2023-03-14T19:37:34;0.63;;;0.20;;
27257;SDS011;62045;49.986;8.672;2023-03-14T19:42:35;0.80;;;0.28;;
27257;SDS011;62045;49.986;8.672;2023-03-14T19:47:37;0.65;;;0.20;;
27257;SDS011;62045;49.986;8.672;2023-03-14T19:52:38;0.75;;;0.30;;
27257;SDS011;62045;49.986;8.672;2023-03-14T19:57:38;0.90;;;0.40;;
27257;SDS011;62045;49.986;8.672;2023-03-14T20:02:41;2.35;;;0.95;;
27257;SDS011;62045;49.986;8.672;2023-03-14T20:07:42;0.93;;;0.30;;
27257;SDS011;62045;49.986;8.672;2023-03-14T20:12:42;0.63;;;0.20;;
27257;SDS011;62045;49.986;8.672;2023-03-14T20:17:45;1.83;;;0.40;;
27257;SDS011;62045;49.986;8.672;2023-03-14T20:22:47;1.70;;;0.30;;
27257;SDS011;62045;49.986;8.672;2023-03-14T20:27:48;1.15;;;0.20;;
27257;SDS011;62045;49.986;8.672;2023-03-14T20:32:51;0.73;;;0.30;;
27257;SDS011;62045;49.986;8.672;2023-03-14T20:37:52;1.08;;;0.30;;
27257;SDS011;62045;49.986;8.672;2023-03-14T20:42:54;0.63;;;0.20;;
27257;SDS011;62045;49.986;8.672;2023-03-14T20:47:56;0.55;;;0.30;;
27257;SDS011;62045;49.986;8.672;2023-03-14T20:52:57;1.08;;;0.40;;
27257;SDS011;62045;49.986;8.672;2023-03-14T20:57:57;2.25;;;0.30;;
27257;SDS011;62045;49.986;8.672;2023-03-14T21:02:59;0.95;;;0.28;;
27257;SDS011;62045;49.986;8.672;2023-03-14T21:08:00;1.30;;;0.30;;
27257;SDS011;62045;49.986;8.672;2023-03-14T21:13:01;1.33;;;0.35;;
27257;SDS011;62045;49.986;8.672;2023-03-14T21:18:03;0.95;;;0.40;;
27257;SDS011;62045;49.986;8.672;2023-03-14T21:23:04;2.05;;;0.60;;
27257;SDS011;62045;49.986;8.672;2023-03-14T21:28:06;1.40;;;0.43;;
27257;SDS011;62045;49.986;8.672;2023-03-14T21:33:08;2.10;;;0.50;;
27257;SDS011;62045;49.986;8.672;2023-03-14T21:38:08;1.45;;;0.40;;
27257;SDS011;62045;49.986;8.672;2023-03-14T21:43:09;2.20;;;0.70;;
27257;SDS011;62045;49.986;8.672;2023-03-14T21:48:11;1.75;;;0.60;;
27257;SDS011;62045;49.986;8.672;2023-03-14T21:53:12;1.20;;;0.60;;
27257;SDS011;62045;49.986;8.672;2023-03-14T21:58:13;1.52;;;0.60;;
27257;SDS011;62045;49.986;8.672;2023-03-14T22:03:15;1.30;;;0.60;;
27257;SDS011;62045;49.986;8.672;2023-03-14T22:08:17;1.52;;;0.50;;
27257;SDS011;62045;49.986;8.672;2023-03-14T22:13:19;1.67;;;0.60;;
27257;SDS011;62045;49.986;8.672;2023-03-14T22:18:22;2.03;;;0.63;;
27257;SDS011;62045;49.986;8.672;2023-03-14T22:23:23;2.05;;;0.70;;
27257;SDS011;62045;49.986;8.672;2023-03-14T22:28:24;1.30;;;0.52;;
27257;SDS011;62045;49.986;8.672;2023-03-14T22:33:26;2.83;;;0.77;;
27257;SDS011;62045;49.986;8.672;2023-03-14T22:38:27;2.35;;;0.90;;
27257;SDS011;62045;49.986;8.672;2023-03-14T22:43:27;1.88;;;0.73;;
27257;SDS011;62045;49.986;8.672;2023-03-14T22:48:29;2.38;;;1.00;;
27257;SDS011;62045;49.986;8.672;2023-03-14T22:53:31;2.08;;;0.82;;
27257;SDS011;62045;49.986;8.672;2023-03-14T22:58:32;1.95;;;0.82;;
27257;SDS011;62045;49.986;8.672;2023-03-14T23:03:34;2.60;;;1.00;;
27257;SDS011;62045;49.986;8.672;2023-03-14T23:08:35;3.60;;;0.90;;
27257;SDS011;62045;49.986;8.672;2023-03-14T23:13:36;2.30;;;0.80;;
27257;SDS011;62045;49.986;8.672;2023-03-14T23:18:38;1.83;;;0.73;;
27257;SDS011;62045;49.986;8.672;2023-03-14T23:23:41;2.20;;;0.85;;
27257;SDS011;62045;49.986;8.672;2023-03-14T23:28:42;3.15;;;1.30;;
27257;SDS011;62045;49.986;8.672;2023-03-14T23:33:44;2.78;;;1.13;;
27257;SDS011;62045;49.986;8.672;2023-03-14T23:38:45;2.55;;;0.80;;
27257;SDS011;62045;49.986;8.672;2023-03-14T23:43:46;2.15;;;0.80;;
27257;SDS011;62045;49.986;8.672;2023-03-14T23:48:49;2.60;;;1.00;;
27257;SDS011;62045;49.986;8.672;2023-03-14T23:53:50;2.80;;;0.90;;
27257;SDS011;62045;49.986;8.672;2023-03-14T23:58:50;2.88;;;0.82;;
